sensor_id;sensor_type;location;lat;lon;timestamp;pressure;altitude;pressure_sealevel;temperature;humidity
41862;BME280;27537;57.134;-2.136;2023-03-31T00:00:05;98753.78;;;10.64;100.00
41862;BME280;27537;57.134;-2.136;2023-03-31T00:02:40;98710.78;;;10.30;100.00
41862;BME280;27537;57.134;-2.136;2023-03-31T00:05:08;98768.25;;;10.57;100.00
41862;BME280;27537;57.134;-2.136;2023-03-31T00:07:35;98750.28;;;10.39;100.00
41862;BME280;27537;57.134;-2.136;2023-03-31T00:10:05;98698.13;;;10.11;100.00
41862;BME280;27537;57.134;-2.136;2023-03-31T00:12:44;98758.53;;;10.46;100.00
41862;BME280;27537;57.134;-2.136;2023-03-31T00:15:11;98735.81;;;10.34;100.00
41862;BME280;27537;57.134;-2.136;2023-03-31T00:17:38;98729.66;;;10.35;100.00
41862;BME280;27537;57.134;-2.136;2023-03-31T00:20:08;98754.78;;;10.50;100.00
41862;BME280;27537;57.134;-2.136;2023-03-31T00:22:38;98710.63;;;10.33;100.00
41862;BME280;27537;57.134;-2.136;2023-03-31T00:25:08;98722.72;;;10.34;100.00
41862;BME280;27537;57.134;-2.136;2023-03-31T00:27:36;98709.22;;;10.14;100.00
41862;BME280;27537;57.134;-2.136;2023-03-31T00:30:03;98759.16;;;10.50;100.00
41862;BME280;27537;57.134;-2.136;2023-03-31T00:32:30;98694.78;;;10.08;100.00
41862;BME280;27537;57.134;-2.136;2023-03-31T00:34:58;98721.81;;;10.35;100.00
41862;BME280;27537;57.134;-2.136;2023-03-31T00:37:28;98731.22;;;10.37;100.00
41862;BME280;27537;57.134;-2.136;2023-03-31T00:39:55;98730.69;;;10.32;100.00
41862;BME280;27537;57.134;-2.136;2023-03-31T00:42:22;98712.56;;;10.16;100.00
41862;BME280;27537;57.134;-2.136;2023-03-31T00:47:48;98711.00;;;10.01;100.00
41862;BME280;27537;57.134;-2.136;2023-03-31T00:50:21;98747.97;;;10.35;100.00
41862;BME280;27537;57.134;-2.136;2023-03-31T00:52:54;98676.38;;;9.97;100.00
41862;BME280;27537;57.134;-2.136;2023-03-31T00:55:26;98750.78;;;10.32;100.00
41862;BME280;27537;57.134;-2.136;2023-03-31T00:57:56;98691.22;;;9.97;100.00
41862;BME280;27537;57.134;-2.136;2023-03-31T01:00:23;98703.34;;;10.11;100.00
41862;BME280;27537;57.134;-2.136;2023-03-31T01:02:53;98682.44;;;9.98;100.00
41862;BME280;27537;57.134;-2.136;2023-03-31T01:05:55;98737.28;;;10.51;100.00
41862;BME280;27537;57.134;-2.136;2023-03-31T01:08:25;98741.25;;;10.56;100.00
41862;BME280;27537;57.134;-2.136;2023-03-31T01:10:56;98732.16;;;10.49;100.00
41862;BME280;27537;57.134;-2.136;2023-03-31T01:13:24;98704.63;;;10.31;100.00
41862;BME280;27537;57.134;-2.136;2023-03-31T01:15:52;98662.38;;;10.11;100.00
41862;BME280;27537;57.134;-2.136;2023-03-31T01:18:21;98727.97;;;10.59;100.00
41862;BME280;27537;57.134;-2.136;2023-03-31T01:32:08;98719.69;;;10.53;100.00
41862;BME280;27537;57.134;-2.136;2023-03-31T01:35:08;98673.25;;;10.31;100.00
41862;BME280;27537;57.134;-2.136;2023-03-31T01:37:47;98724.00;;;10.54;100.00
41862;BME280;27537;57.134;-2.136;2023-03-31T01:40:56;98714.78;;;10.61;100.00
41862;BME280;27537;57.134;-2.136;2023-03-31T01:57:14;98673.91;;;10.34;100.00
41862;BME280;27537;57.134;-2.136;2023-03-31T02:02:35;98653.78;;;10.22;100.00
41862;BME280;27537;57.134;-2.136;2023-03-31T02:05:18;98646.56;;;10.25;100.00
41862;BME280;27537;57.134;-2.136;2023-03-31T02:07:49;98655.22;;;10.26;100.00
41862;BME280;27537;57.134;-2.136;2023-03-31T02:10:19;98688.50;;;10.50;100.00
41862;BME280;27537;57.134;-2.136;2023-03-31T02:12:47;98664.78;;;10.27;100.00
41862;BME280;27537;57.134;-2.136;2023-03-31T02:15:21;98645.41;;;10.17;100.00
41862;BME280;27537;57.134;-2.136;2023-03-31T02:17:53;98639.34;;;10.16;100.00
41862;BME280;27537;57.134;-2.136;2023-03-31T02:20:22;98631.81;;;10.24;100.00
41862;BME280;27537;57.134;-2.136;2023-03-31T02:22:53;98646.97;;;10.19;100.00
41862;BME280;27537;57.134;-2.136;2023-03-31T02:25:24;98622.72;;;10.04;100.00
41862;BME280;27537;57.134;-2.136;2023-03-31T02:27:57;98665.09;;;10.35;100.00
41862;BME280;27537;57.134;-2.136;2023-03-31T02:30:28;98680.03;;;10.46;100.00
41862;BME280;27537;57.134;-2.136;2023-03-31T02:32:58;98641.94;;;10.16;100.00
41862;BME280;27537;57.134;-2.136;2023-03-31T02:35:25;98627.03;;;9.93;100.00
41862;BME280;27537;57.134;-2.136;2023-03-31T02:37:52;98668.63;;;10.21;100.00
41862;BME280;27537;57.134;-2.136;2023-03-31T02:40:21;98647.63;;;10.10;100.00
41862;BME280;27537;57.134;-2.136;2023-03-31T02:42:48;98614.66;;;9.95;100.00
41862;BME280;27537;57.134;-2.136;2023-03-31T02:48:00;98660.16;;;10.05;100.00
41862;BME280;27537;57.134;-2.136;2023-03-31T02:50:32;98628.06;;;9.77;100.00
41862;BME280;27537;57.134;-2.136;2023-03-31T02:53:24;98589.88;;;9.49;100.00
41862;BME280;27537;57.134;-2.136;2023-03-31T02:59:11;98664.84;;;9.61;100.00
41862;BME280;27537;57.134;-2.136;2023-03-31T03:01:43;98663.25;;;9.46;100.00
41862;BME280;27537;57.134;-2.136;2023-03-31T03:04:50;98658.84;;;9.46;100.00
41862;BME280;27537;57.134;-2.136;2023-03-31T03:10:09;98657.72;;;9.50;100.00
41862;BME280;27537;57.134;-2.136;2023-03-31T03:17:40;98654.84;;;9.28;100.00
41862;BME280;27537;57.134;-2.136;2023-03-31T03:20:09;98653.72;;;9.32;100.00
41862;BME280;27537;57.134;-2.136;2023-03-31T03:22:37;98603.81;;;8.97;100.00
41862;BME280;27537;57.134;-2.136;2023-03-31T03:25:10;98616.03;;;8.96;100.00
41862;BME280;27537;57.134;-2.136;2023-03-31T03:27:38;98631.53;;;9.12;100.00
41862;BME280;27537;57.134;-2.136;2023-03-31T03:30:08;98629.75;;;8.85;100.00
41862;BME280;27537;57.134;-2.136;2023-03-31T03:32:35;98565.28;;;8.46;100.00
41862;BME280;27537;57.134;-2.136;2023-03-31T03:35:02;98625.59;;;8.96;100.00
41862;BME280;27537;57.134;-2.136;2023-03-31T03:37:30;98612.50;;;8.83;100.00
41862;BME280;27537;57.134;-2.136;2023-03-31T03:39:57;98622.56;;;8.89;100.00
41862;BME280;27537;57.134;-2.136;2023-03-31T03:42:24;98574.50;;;8.51;100.00
41862;BME280;27537;57.134;-2.136;2023-03-31T03:44:50;98583.72;;;8.57;100.00
41862;BME280;27537;57.134;-2.136;2023-03-31T03:47:17;98563.44;;;8.48;100.00
41862;BME280;27537;57.134;-2.136;2023-03-31T03:49:44;98544.44;;;8.46;100.00
41862;BME280;27537;57.134;-2.136;2023-03-31T03:52:10;98568.59;;;8.62;100.00
41862;BME280;27537;57.134;-2.136;2023-03-31T03:54:37;98582.19;;;8.67;100.00
41862;BME280;27537;57.134;-2.136;2023-03-31T03:57:04;98615.13;;;8.83;100.00
41862;BME280;27537;57.134;-2.136;2023-03-31T03:59:32;98616.03;;;8.96;100.00
41862;BME280;27537;57.134;-2.136;2023-03-31T04:01:58;98609.22;;;8.93;100.00
41862;BME280;27537;57.134;-2.136;2023-03-31T04:04:25;98575.94;;;8.70;100.00
41862;BME280;27537;57.134;-2.136;2023-03-31T04:06:52;98564.69;;;8.69;100.00
41862;BME280;27537;57.134;-2.136;2023-03-31T04:09:18;98603.06;;;8.95;100.00
41862;BME280;27537;57.134;-2.136;2023-03-31T04:11:45;98602.63;;;8.88;100.00
41862;BME280;27537;57.134;-2.136;2023-03-31T04:14:12;98614.84;;;8.87;100.00
41862;BME280;27537;57.134;-2.136;2023-03-31T04:16:38;98564.69;;;8.55;100.00
41862;BME280;27537;57.134;-2.136;2023-03-31T04:19:06;98569.28;;;8.79;100.00
41862;BME280;27537;57.134;-2.136;2023-03-31T04:21:33;98579.22;;;8.86;100.00
41862;BME280;27537;57.134;-2.136;2023-03-31T04:24:01;98568.44;;;8.78;100.00
41862;BME280;27537;57.134;-2.136;2023-03-31T04:29:10;98606.84;;;9.03;100.00
41862;BME280;27537;57.134;-2.136;2023-03-31T04:31:39;98578.41;;;8.86;100.00
41862;BME280;27537;57.134;-2.136;2023-03-31T04:34:10;98603.34;;;9.17;100.00
41862;BME280;27537;57.134;-2.136;2023-03-31T04:36:45;98599.94;;;9.02;100.00
41862;BME280;27537;57.134;-2.136;2023-03-31T04:39:17;98585.00;;;9.04;100.00
41862;BME280;27537;57.134;-2.136;2023-03-31T04:41:52;98560.56;;;8.92;100.00
41862;BME280;27537;57.134;-2.136;2023-03-31T04:44:19;98561.31;;;8.95;100.00
41862;BME280;27537;57.134;-2.136;2023-03-31T04:46:46;98534.13;;;8.84;100.00
41862;BME280;27537;57.134;-2.136;2023-03-31T04:49:13;98603.03;;;9.22;100.00
41862;BME280;27537;57.134;-2.136;2023-03-31T04:51:40;98530.78;;;8.82;100.00
41862;BME280;27537;57.134;-2.136;2023-03-31T04:54:06;98565.63;;;9.08;100.00
41862;BME280;27537;57.134;-2.136;2023-03-31T04:56:33;98577.44;;;9.14;100.00
41862;BME280;27537;57.134;-2.136;2023-03-31T04:59:00;98551.09;;;9.04;100.00
41862;BME280;27537;57.134;-2.136;2023-03-31T05:01:26;98561.31;;;9.07;100.00
41862;BME280;27537;57.134;-2.136;2023-03-31T05:03:53;98572.00;;;9.17;100.00
41862;BME280;27537;57.134;-2.136;2023-03-31T05:06:20;98582.31;;;9.19;100.00
41862;BME280;27537;57.134;-2.136;2023-03-31T05:08:46;98571.78;;;9.20;100.00
41862;BME280;27537;57.134;-2.136;2023-03-31T05:11:13;98618.44;;;9.52;100.00
41862;BME280;27537;57.134;-2.136;2023-03-31T05:13:40;98582.47;;;9.30;100.00
41862;BME280;27537;57.134;-2.136;2023-03-31T05:16:11;98606.63;;;9.46;100.00
41862;BME280;27537;57.134;-2.136;2023-03-31T05:18:40;98623.34;;;9.57;100.00
41862;BME280;27537;57.134;-2.136;2023-03-31T05:21:09;98618.63;;;9.49;100.00
41862;BME280;27537;57.134;-2.136;2023-03-31T05:23:36;98557.38;;;9.15;100.00
41862;BME280;27537;57.134;-2.136;2023-03-31T05:26:03;98588.31;;;9.34;100.00
41862;BME280;27537;57.134;-2.136;2023-03-31T05:28:30;98571.50;;;9.25;100.00
41862;BME280;27537;57.134;-2.136;2023-03-31T05:30:59;98628.69;;;9.68;100.00
41862;BME280;27537;57.134;-2.136;2023-03-31T05:33:27;98564.59;;;9.24;100.00
41862;BME280;27537;57.134;-2.136;2023-03-31T05:35:55;98629.50;;;9.56;100.00
41862;BME280;27537;57.134;-2.136;2023-03-31T05:38:22;98598.97;;;9.30;100.00
41862;BME280;27537;57.134;-2.136;2023-03-31T05:40:48;98568.16;;;9.23;100.00
41862;BME280;27537;57.134;-2.136;2023-03-31T05:43:15;98597.72;;;9.36;100.00
41862;BME280;27537;57.134;-2.136;2023-03-31T05:45:42;98633.47;;;9.61;100.00
41862;BME280;27537;57.134;-2.136;2023-03-31T05:48:08;98584.03;;;9.32;100.00
41862;BME280;27537;57.134;-2.136;2023-03-31T05:50:35;98601.50;;;9.45;100.00
41862;BME280;27537;57.134;-2.136;2023-03-31T05:53:02;98644.25;;;9.69;100.00
41862;BME280;27537;57.134;-2.136;2023-03-31T05:55:29;98606.31;;;9.51;100.00
41862;BME280;27537;57.134;-2.136;2023-03-31T05:57:58;98615.81;;;9.65;100.00
41862;BME280;27537;57.134;-2.136;2023-03-31T06:00:26;98601.28;;;9.61;100.00
41862;BME280;27537;57.134;-2.136;2023-03-31T06:02:54;98626.78;;;9.70;100.00
41862;BME280;27537;57.134;-2.136;2023-03-31T06:05:21;98615.91;;;9.50;100.00
41862;BME280;27537;57.134;-2.136;2023-03-31T06:07:52;98665.06;;;9.84;100.00
41862;BME280;27537;57.134;-2.136;2023-03-31T06:10:19;98593.03;;;9.41;100.00
41862;BME280;27537;57.134;-2.136;2023-03-31T06:12:46;98588.97;;;9.50;100.00
41862;BME280;27537;57.134;-2.136;2023-03-31T06:15:13;98663.94;;;9.88;100.00
41862;BME280;27537;57.134;-2.136;2023-03-31T06:17:39;98631.00;;;9.73;100.00
41862;BME280;27537;57.134;-2.136;2023-03-31T06:20:06;98597.72;;;9.49;100.00
41862;BME280;27537;57.134;-2.136;2023-03-31T06:22:52;98614.56;;;9.58;100.00
41862;BME280;27537;57.134;-2.136;2023-03-31T06:25:18;98616.97;;;9.61;100.00
41862;BME280;27537;57.134;-2.136;2023-03-31T06:27:45;98619.47;;;9.49;100.00
41862;BME280;27537;57.134;-2.136;2023-03-31T06:30:12;98601.69;;;9.42;100.00
41862;BME280;27537;57.134;-2.136;2023-03-31T06:32:39;98602.31;;;9.45;100.00
41862;BME280;27537;57.134;-2.136;2023-03-31T06:35:06;98679.63;;;9.88;100.00
41862;BME280;27537;57.134;-2.136;2023-03-31T06:37:32;98661.41;;;9.74;100.00
41862;BME280;27537;57.134;-2.136;2023-03-31T06:39:59;98661.00;;;9.67;100.00
41862;BME280;27537;57.134;-2.136;2023-03-31T06:42:26;98675.41;;;9.73;100.00
41862;BME280;27537;57.134;-2.136;2023-03-31T06:44:52;98647.50;;;9.60;100.00
41862;BME280;27537;57.134;-2.136;2023-03-31T06:47:21;98659.84;;;9.58;100.00
41862;BME280;27537;57.134;-2.136;2023-03-31T06:49:48;98642.91;;;9.51;100.00
41862;BME280;27537;57.134;-2.136;2023-03-31T06:52:15;98657.94;;;9.60;100.00
41862;BME280;27537;57.134;-2.136;2023-03-31T06:54:41;98675.91;;;9.65;100.00
41862;BME280;27537;57.134;-2.136;2023-03-31T06:57:08;98673.44;;;9.63;100.00
41862;BME280;27537;57.134;-2.136;2023-03-31T06:59:35;98664.00;;;9.61;100.00
41862;BME280;27537;57.134;-2.136;2023-03-31T07:02:02;98691.94;;;9.73;100.00
41862;BME280;27537;57.134;-2.136;2023-03-31T07:04:29;98658.97;;;9.58;100.00
41862;BME280;27537;57.134;-2.136;2023-03-31T07:06:57;98672.81;;;9.73;100.00
41862;BME280;27537;57.134;-2.136;2023-03-31T07:09:24;98704.19;;;9.85;100.00
41862;BME280;27537;57.134;-2.136;2023-03-31T07:11:51;98720.50;;;9.89;100.00
41862;BME280;27537;57.134;-2.136;2023-03-31T07:14:21;98712.03;;;9.85;100.00
41862;BME280;27537;57.134;-2.136;2023-03-31T07:16:48;98690.16;;;9.74;100.00
41862;BME280;27537;57.134;-2.136;2023-03-31T07:19:16;98654.78;;;9.42;100.00
41862;BME280;27537;57.134;-2.136;2023-03-31T07:21:43;98675.59;;;9.44;100.00
41862;BME280;27537;57.134;-2.136;2023-03-31T07:24:09;98687.78;;;9.43;100.00
41862;BME280;27537;57.134;-2.136;2023-03-31T07:26:36;98716.50;;;9.71;100.00
41862;BME280;27537;57.134;-2.136;2023-03-31T07:29:03;98695.63;;;9.43;100.00
41862;BME280;27537;57.134;-2.136;2023-03-31T07:31:29;98716.63;;;9.42;100.00
41862;BME280;27537;57.134;-2.136;2023-03-31T07:33:56;98721.75;;;9.43;100.00
41862;BME280;27537;57.134;-2.136;2023-03-31T07:36:23;98699.72;;;9.20;100.00
41862;BME280;27537;57.134;-2.136;2023-03-31T07:38:50;98722.41;;;9.20;100.00
41862;BME280;27537;57.134;-2.136;2023-03-31T07:41:18;98756.34;;;9.47;100.00
41862;BME280;27537;57.134;-2.136;2023-03-31T07:43:46;98733.22;;;9.28;100.00
41862;BME280;27537;57.134;-2.136;2023-03-31T07:46:15;98760.84;;;9.45;100.00
41862;BME280;27537;57.134;-2.136;2023-03-31T07:48:42;98766.69;;;9.48;100.00
41862;BME280;27537;57.134;-2.136;2023-03-31T07:51:09;98701.91;;;8.72;100.00
41862;BME280;27537;57.134;-2.136;2023-03-31T07:53:36;98714.28;;;8.83;100.00
41862;BME280;27537;57.134;-2.136;2023-03-31T07:56:02;98750.22;;;9.06;100.00
41862;BME280;27537;57.134;-2.136;2023-03-31T07:58:30;98763.25;;;9.06;100.00
41862;BME280;27537;57.134;-2.136;2023-03-31T08:00:56;98746.06;;;8.89;100.00
41862;BME280;27537;57.134;-2.136;2023-03-31T08:03:23;98759.78;;;8.79;100.00
41862;BME280;27537;57.134;-2.136;2023-03-31T08:05:51;98801.13;;;8.99;100.00
41862;BME280;27537;57.134;-2.136;2023-03-31T08:08:18;98762.19;;;8.96;100.00
41862;BME280;27537;57.134;-2.136;2023-03-31T08:10:44;98759.69;;;8.80;100.00
41862;BME280;27537;57.134;-2.136;2023-03-31T08:13:11;98720.34;;;8.69;100.00
41862;BME280;27537;57.134;-2.136;2023-03-31T08:15:38;98747.53;;;8.93;100.00
41862;BME280;27537;57.134;-2.136;2023-03-31T08:18:05;98742.22;;;8.95;100.00
41862;BME280;27537;57.134;-2.136;2023-03-31T08:20:32;98763.19;;;8.93;100.00
41862;BME280;27537;57.134;-2.136;2023-03-31T08:22:59;98742.81;;;8.71;100.00
41862;BME280;27537;57.134;-2.136;2023-03-31T08:25:25;98787.34;;;8.97;100.00
41862;BME280;27537;57.134;-2.136;2023-03-31T08:27:52;98768.72;;;8.89;100.00
41862;BME280;27537;57.134;-2.136;2023-03-31T08:30:19;98765.91;;;8.92;100.00
41862;BME280;27537;57.134;-2.136;2023-03-31T08:32:46;98782.41;;;8.92;100.00
41862;BME280;27537;57.134;-2.136;2023-03-31T08:35:12;98758.69;;;8.54;100.00
41862;BME280;27537;57.134;-2.136;2023-03-31T08:37:39;98758.00;;;8.36;100.00
41862;BME280;27537;57.134;-2.136;2023-03-31T08:40:07;98823.97;;;8.96;100.00
41862;BME280;27537;57.134;-2.136;2023-03-31T08:42:45;98760.97;;;8.59;100.00
41862;BME280;27537;57.134;-2.136;2023-03-31T08:45:35;98818.84;;;8.94;100.00
41862;BME280;27537;57.134;-2.136;2023-03-31T08:50:52;98791.94;;;8.79;100.00
41862;BME280;27537;57.134;-2.136;2023-03-31T08:55:54;98806.09;;;8.75;100.00
41862;BME280;27537;57.134;-2.136;2023-03-31T09:06:42;98832.56;;;9.12;100.00
41862;BME280;27537;57.134;-2.136;2023-03-31T09:09:29;98782.41;;;8.64;100.00
41862;BME280;27537;57.134;-2.136;2023-03-31T09:12:03;98780.66;;;8.64;100.00
41862;BME280;27537;57.134;-2.136;2023-03-31T09:17:10;98818.00;;;8.93;100.00
41862;BME280;27537;57.134;-2.136;2023-03-31T09:19:51;98806.91;;;8.90;100.00
41862;BME280;27537;57.134;-2.136;2023-03-31T09:22:24;98849.78;;;9.29;100.00
41862;BME280;27537;57.134;-2.136;2023-03-31T09:27:33;98844.19;;;9.35;100.00
41862;BME280;27537;57.134;-2.136;2023-03-31T09:32:38;98809.34;;;9.07;100.00
41862;BME280;27537;57.134;-2.136;2023-03-31T09:35:18;98856.41;;;9.20;100.00
41862;BME280;27537;57.134;-2.136;2023-03-31T09:37:48;98844.41;;;9.03;100.00
41862;BME280;27537;57.134;-2.136;2023-03-31T09:40:17;98863.22;;;9.23;100.00
41862;BME280;27537;57.134;-2.136;2023-03-31T09:42:54;98871.31;;;9.18;100.00
41862;BME280;27537;57.134;-2.136;2023-03-31T09:45:22;98824.97;;;9.22;100.00
41862;BME280;27537;57.134;-2.136;2023-03-31T09:47:51;98842.44;;;9.07;100.00
41862;BME280;27537;57.134;-2.136;2023-03-31T09:50:21;98857.91;;;9.24;100.00
41862;BME280;27537;57.134;-2.136;2023-03-31T09:53:00;98843.63;;;9.30;100.00
41862;BME280;27537;57.134;-2.136;2023-03-31T09:55:43;98843.34;;;9.20;100.00
41862;BME280;27537;57.134;-2.136;2023-03-31T09:58:13;98880.72;;;9.49;100.00
41862;BME280;27537;57.134;-2.136;2023-03-31T10:00:43;98874.22;;;9.28;100.00
41862;BME280;27537;57.134;-2.136;2023-03-31T10:03:23;98879.97;;;9.47;100.00
41862;BME280;27537;57.134;-2.136;2023-03-31T10:05:51;98851.84;;;8.95;100.00
41862;BME280;27537;57.134;-2.136;2023-03-31T10:08:58;98874.59;;;9.07;100.00
41862;BME280;27537;57.134;-2.136;2023-03-31T10:11:27;98880.09;;;8.74;100.00
41862;BME280;27537;57.134;-2.136;2023-03-31T10:14:09;98887.47;;;9.10;100.00
41862;BME280;27537;57.134;-2.136;2023-03-31T10:16:44;98907.03;;;9.46;100.00
41862;BME280;27537;57.134;-2.136;2023-03-31T10:19:34;98903.31;;;9.22;100.00
41862;BME280;27537;57.134;-2.136;2023-03-31T10:22:13;98918.31;;;8.89;100.00
41862;BME280;27537;57.134;-2.136;2023-03-31T10:24:43;98921.84;;;9.03;100.00
41862;BME280;27537;57.134;-2.136;2023-03-31T10:27:28;98902.38;;;8.94;100.00
41862;BME280;27537;57.134;-2.136;2023-03-31T10:29:57;98922.81;;;9.02;100.00
41862;BME280;27537;57.134;-2.136;2023-03-31T10:32:26;98903.97;;;8.97;100.00
41862;BME280;27537;57.134;-2.136;2023-03-31T10:34:56;98939.13;;;9.05;100.00
41862;BME280;27537;57.134;-2.136;2023-03-31T10:37:25;98926.50;;;8.98;100.00
41862;BME280;27537;57.134;-2.136;2023-03-31T10:39:59;98926.25;;;8.88;100.00
41862;BME280;27537;57.134;-2.136;2023-03-31T10:42:27;98952.53;;;8.99;100.00
41862;BME280;27537;57.134;-2.136;2023-03-31T10:45:30;98950.56;;;9.03;100.00
41862;BME280;27537;57.134;-2.136;2023-03-31T10:48:03;98956.66;;;9.18;100.00
41862;BME280;27537;57.134;-2.136;2023-03-31T10:50:33;98957.03;;;9.26;100.00
41862;BME280;27537;57.134;-2.136;2023-03-31T10:53:08;98961.25;;;9.28;100.00
41862;BME280;27537;57.134;-2.136;2023-03-31T10:56:09;98958.72;;;9.27;100.00
41862;BME280;27537;57.134;-2.136;2023-03-31T11:04:37;98964.50;;;9.18;100.00
41862;BME280;27537;57.134;-2.136;2023-03-31T11:18:52;98969.25;;;9.11;100.00
41862;BME280;27537;57.134;-2.136;2023-03-31T11:24:35;98984.91;;;9.25;100.00
41862;BME280;27537;57.134;-2.136;2023-03-31T11:43:39;99016.66;;;9.34;100.00
41862;BME280;27537;57.134;-2.136;2023-03-31T11:46:19;99011.03;;;9.25;100.00
41862;BME280;27537;57.134;-2.136;2023-03-31T11:51:54;98958.94;;;8.79;100.00
41862;BME280;27537;57.134;-2.136;2023-03-31T11:56:51;98989.72;;;8.88;100.00
41862;BME280;27537;57.134;-2.136;2023-03-31T11:59:19;98996.47;;;9.07;100.00
41862;BME280;27537;57.134;-2.136;2023-03-31T12:02:00;99024.84;;;9.27;100.00
41862;BME280;27537;57.134;-2.136;2023-03-31T12:04:36;99034.94;;;9.34;100.00
41862;BME280;27537;57.134;-2.136;2023-03-31T12:07:21;99038.28;;;9.36;100.00
41862;BME280;27537;57.134;-2.136;2023-03-31T13:31:11;99151.84;;;8.01;100.00
41862;BME280;27537;57.134;-2.136;2023-03-31T13:33:40;99170.28;;;8.14;100.00
41862;BME280;27537;57.134;-2.136;2023-03-31T13:36:18;99173.91;;;8.11;100.00
41862;BME280;27537;57.134;-2.136;2023-03-31T13:50:09;99176.38;;;8.30;100.00
41862;BME280;27537;57.134;-2.136;2023-03-31T13:58:33;99180.13;;;8.42;100.00
41862;BME280;27537;57.134;-2.136;2023-03-31T14:01:20;99132.72;;;8.18;100.00
41862;BME280;27537;57.134;-2.136;2023-03-31T14:06:38;99192.13;;;8.29;100.00
41862;BME280;27537;57.134;-2.136;2023-03-31T14:09:32;99149.25;;;8.01;100.00
41862;BME280;27537;57.134;-2.136;2023-03-31T14:14:54;99187.53;;;8.34;100.00
41862;BME280;27537;57.134;-2.136;2023-03-31T14:17:26;99196.63;;;8.43;100.00
41862;BME280;27537;57.134;-2.136;2023-03-31T14:25:45;99185.28;;;8.26;100.00
41862;BME280;27537;57.134;-2.136;2023-03-31T14:33:53;99223.69;;;8.40;100.00
41862;BME280;27537;57.134;-2.136;2023-03-31T14:36:37;99206.25;;;8.07;100.00
41862;BME280;27537;57.134;-2.136;2023-03-31T14:39:09;99190.34;;;7.96;100.00
41862;BME280;27537;57.134;-2.136;2023-03-31T14:41:37;99184.38;;;7.76;100.00
41862;BME280;27537;57.134;-2.136;2023-03-31T14:44:05;99232.50;;;8.22;100.00
41862;BME280;27537;57.134;-2.136;2023-03-31T14:46:36;99205.97;;;8.13;100.00
41862;BME280;27537;57.134;-2.136;2023-03-31T14:49:25;99203.34;;;8.13;100.00
41862;BME280;27537;57.134;-2.136;2023-03-31T14:51:54;99245.53;;;8.22;100.00
41862;BME280;27537;57.134;-2.136;2023-03-31T14:54:21;99228.03;;;8.24;100.00
41862;BME280;27537;57.134;-2.136;2023-03-31T14:56:51;99193.41;;;8.04;100.00
41862;BME280;27537;57.134;-2.136;2023-03-31T14:59:22;99244.09;;;8.32;100.00
41862;BME280;27537;57.134;-2.136;2023-03-31T15:01:50;99159.16;;;7.77;100.00
41862;BME280;27537;57.134;-2.136;2023-03-31T15:04:21;99248.22;;;8.20;100.00
41862;BME280;27537;57.134;-2.136;2023-03-31T15:07:05;99190.69;;;7.72;100.00
41862;BME280;27537;57.134;-2.136;2023-03-31T15:09:33;99254.75;;;7.94;100.00
41862;BME280;27537;57.134;-2.136;2023-03-31T15:12:05;99221.63;;;7.78;100.00
41862;BME280;27537;57.134;-2.136;2023-03-31T15:14:41;99276.13;;;8.18;100.00
41862;BME280;27537;57.134;-2.136;2023-03-31T15:17:18;99211.53;;;7.55;100.00
41862;BME280;27537;57.134;-2.136;2023-03-31T15:19:50;99243.00;;;7.68;100.00
41862;BME280;27537;57.134;-2.136;2023-03-31T15:22:17;99244.47;;;7.73;100.00
41862;BME280;27537;57.134;-2.136;2023-03-31T15:24:44;99243.00;;;7.68;100.00
41862;BME280;27537;57.134;-2.136;2023-03-31T15:27:36;99289.09;;;8.02;100.00
41862;BME280;27537;57.134;-2.136;2023-03-31T15:30:18;99301.41;;;8.16;100.00
41862;BME280;27537;57.134;-2.136;2023-03-31T15:32:47;99286.84;;;7.94;100.00
41862;BME280;27537;57.134;-2.136;2023-03-31T15:35:26;99235.88;;;7.54;100.00
41862;BME280;27537;57.134;-2.136;2023-03-31T15:37:55;99277.50;;;7.73;100.00
41862;BME280;27537;57.134;-2.136;2023-03-31T15:40:34;99264.00;;;7.65;100.00
41862;BME280;27537;57.134;-2.136;2023-03-31T15:48:34;99262.69;;;7.73;100.00
41862;BME280;27537;57.134;-2.136;2023-03-31T15:51:06;99278.31;;;7.73;100.00
41862;BME280;27537;57.134;-2.136;2023-03-31T15:53:42;99305.94;;;7.95;100.00
41862;BME280;27537;57.134;-2.136;2023-03-31T15:59:02;99302.88;;;8.04;100.00
41862;BME280;27537;57.134;-2.136;2023-03-31T16:01:32;99262.09;;;7.86;100.00
41862;BME280;27537;57.134;-2.136;2023-03-31T16:04:08;99246.97;;;7.57;100.00
41862;BME280;27537;57.134;-2.136;2023-03-31T16:06:46;99254.63;;;7.43;100.00
41862;BME280;27537;57.134;-2.136;2023-03-31T16:11:52;99272.41;;;7.52;100.00
41862;BME280;27537;57.134;-2.136;2023-03-31T16:17:12;99282.91;;;7.51;100.00
41862;BME280;27537;57.134;-2.136;2023-03-31T16:19:49;99302.25;;;7.45;100.00
41862;BME280;27537;57.134;-2.136;2023-03-31T16:22:21;99294.06;;;7.35;100.00
41862;BME280;27537;57.134;-2.136;2023-03-31T16:24:50;99303.91;;;7.29;100.00
41862;BME280;27537;57.134;-2.136;2023-03-31T16:27:17;99294.06;;;7.35;100.00
41862;BME280;27537;57.134;-2.136;2023-03-31T16:29:44;99310.88;;;7.28;100.00
41862;BME280;27537;57.134;-2.136;2023-03-31T16:32:13;99296.94;;;7.29;100.00
41862;BME280;27537;57.134;-2.136;2023-03-31T16:35:00;99349.00;;;7.48;100.00
41862;BME280;27537;57.134;-2.136;2023-03-31T16:37:28;99314.00;;;7.17;100.00
41862;BME280;27537;57.134;-2.136;2023-03-31T16:39:55;99303.06;;;7.28;100.00
41862;BME280;27537;57.134;-2.136;2023-03-31T16:42:22;99285.94;;;7.05;100.00
41862;BME280;27537;57.134;-2.136;2023-03-31T16:44:49;99314.81;;;7.18;100.00
41862;BME280;27537;57.134;-2.136;2023-03-31T16:47:36;99324.25;;;7.01;100.00
41862;BME280;27537;57.134;-2.136;2023-03-31T16:50:03;99327.13;;;6.95;100.00
41862;BME280;27537;57.134;-2.136;2023-03-31T16:52:33;99344.09;;;7.04;100.00
41862;BME280;27537;57.134;-2.136;2023-03-31T16:55:01;99314.19;;;6.94;100.00
41862;BME280;27537;57.134;-2.136;2023-03-31T16:57:28;99346.25;;;7.13;100.00
41862;BME280;27537;57.134;-2.136;2023-03-31T16:59:54;99335.94;;;6.93;100.00
41862;BME280;27537;57.134;-2.136;2023-03-31T17:02:24;99336.00;;;6.91;100.00
41862;BME280;27537;57.134;-2.136;2023-03-31T17:04:51;99352.03;;;7.01;100.00
41862;BME280;27537;57.134;-2.136;2023-03-31T17:07:22;99333.47;;;6.90;100.00